Seadream 1 — C6PW8 — position and weather

sailwx.info

Track history (hours):
 
Tides and Currents Weather Stations Pressure Air Temp Water Temp Dewpoint Dewpoint Depression Visibility Wind Speed Wind Dir Waves Ship Positions

Seadream 1

Last reported at 2017-Nov-19 06:11 UTC. Time now 2017-Nov-25 04:08 UTC.
Position N 17°20' W 062°53'.

Length 105 m; draft 4.3 m.

Type: Ship. MMSI: 308908000.

Date/timePositionNaut miles runAvg speedWind from/ knotsBaromVisibWave heightAir tempDewpointWater temp
2017-Nov-19 06:11N 17°20' W 062°53'34 1.0
2017-Nov-17 20:14N 17°54' W 062°52'72 1.8
2017-Nov-16 05:23N 16°46' W 062°29'410.6
2017-Nov-16 05:01N 16°43' W 062°26'510.5
2017-Nov-16 04:31N 16°39' W 062°22'510.3
2017-Nov-16 04:01N 16°36' W 062°19'510.1
2017-Nov-16 03:31N 16°32' W 062°15'510.1
2017-Nov-16 03:01N 16°29' W 062°11'510.0
2017-Nov-16 02:30N 16°25' W 062°07'5 9.9
2017-Nov-16 01:59N 16°21' W 062°04'5 9.8
2017-Nov-16 01:28N 16°17' W 062°00'510.1
2017-Nov-16 01:00N 16°13' W 061°58'17 9.8
2017-Nov-15 23:18N 16°00' W 061°47'510.1
2017-Nov-15 22:46N 15°56' W 061°43'6 0.5
2017-Nov-15 11:08N 15°51' W 061°40'1 7.1
2017-Nov-15 11:00N 15°50' W 061°40'15 7.3
2017-Nov-15 08:59N 15°36' W 061°34'5 7.7
2017-Nov-15 08:17N 15°31' W 061°32'58 8.4
2017-Nov-15 01:25N 14°37' W 061°11'4 9.8
2017-Nov-15 01:00N 14°33' W 061°10'510.3
2017-Nov-15 00:31N 14°29' W 061°08'510.4
2017-Nov-15 00:01N 14°24' W 061°07'  
Track history (hours):
 
Tides and Currents Weather Stations Pressure Air Temp Water Temp Dewpoint Dewpoint Depression Visibility Wind Speed Wind Dir Waves Ship Positions

Seadream 1

Last reported at 2017-Nov-19 06:11 UTC. Time now 2017-Nov-25 04:08 UTC.
Position N 17°20' W 062°53'.

Length 105 m; draft 4.3 m.

Type: Ship. MMSI: 308908000.

Date/timePositionNaut miles runAvg speedWind from/ knotsBaromVisibWave heightAir tempDewpointWater temp
2017-Nov-19 06:11N 17°20' W 062°53'34 1.0
2017-Nov-17 20:14N 17°54' W 062°52'72 1.8
2017-Nov-16 05:23N 16°46' W 062°29'410.6
2017-Nov-16 05:01N 16°43' W 062°26'510.5
2017-Nov-16 04:31N 16°39' W 062°22'510.3
2017-Nov-16 04:01N 16°36' W 062°19'510.1
2017-Nov-16 03:31N 16°32' W 062°15'510.1
2017-Nov-16 03:01N 16°29' W 062°11'510.0
2017-Nov-16 02:30N 16°25' W 062°07'5 9.9
2017-Nov-16 01:59N 16°21' W 062°04'5 9.8
2017-Nov-16 01:28N 16°17' W 062°00'510.1
2017-Nov-16 01:00N 16°13' W 061°58'17 9.8
2017-Nov-15 23:18N 16°00' W 061°47'510.1
2017-Nov-15 22:46N 15°56' W 061°43'6 0.5
2017-Nov-15 11:08N 15°51' W 061°40'1 7.1
2017-Nov-15 11:00N 15°50' W 061°40'15 7.3
2017-Nov-15 08:59N 15°36' W 061°34'5 7.7
2017-Nov-15 08:17N 15°31' W 061°32'58 8.4
2017-Nov-15 01:25N 14°37' W 061°11'4 9.8
2017-Nov-15 01:00N 14°33' W 061°10'510.3
2017-Nov-15 00:31N 14°29' W 061°08'510.4
2017-Nov-15 00:01N 14°24' W 061°07'  

Dump ship's entire track history